sensor_id;sensor_type;location;lat;lon;timestamp;P1;durP1;ratioP1;P2;durP2;ratioP2
44925;SDS011;30662;51.210;7.656;2023-02-07T00:00:34;10.13;;;7.30;;
44925;SDS011;30662;51.210;7.656;2023-02-07T00:03:00;14.38;;;8.30;;
44925;SDS011;30662;51.210;7.656;2023-02-07T00:05:27;11.13;;;6.70;;
44925;SDS011;30662;51.210;7.656;2023-02-07T00:07:53;13.45;;;7.63;;
44925;SDS011;30662;51.210;7.656;2023-02-07T00:10:19;10.85;;;7.32;;
44925;SDS011;30662;51.210;7.656;2023-02-07T00:12:46;15.70;;;7.57;;
44925;SDS011;30662;51.210;7.656;2023-02-07T00:15:12;14.30;;;8.07;;
44925;SDS011;30662;51.210;7.656;2023-02-07T00:17:38;13.68;;;7.88;;
44925;SDS011;30662;51.210;7.656;2023-02-07T00:20:04;11.15;;;7.15;;
44925;SDS011;30662;51.210;7.656;2023-02-07T00:22:30;15.65;;;7.75;;
44925;SDS011;30662;51.210;7.656;2023-02-07T00:24:56;9.73;;;7.95;;
44925;SDS011;30662;51.210;7.656;2023-02-07T00:27:22;11.23;;;7.10;;
44925;SDS011;30662;51.210;7.656;2023-02-07T00:29:48;11.63;;;7.18;;
44925;SDS011;30662;51.210;7.656;2023-02-07T00:32:14;10.02;;;7.32;;
44925;SDS011;30662;51.210;7.656;2023-02-07T00:34:40;10.63;;;7.00;;
44925;SDS011;30662;51.210;7.656;2023-02-07T00:37:06;10.73;;;7.05;;
44925;SDS011;30662;51.210;7.656;2023-02-07T00:39:34;10.50;;;7.18;;
44925;SDS011;30662;51.210;7.656;2023-02-07T00:42:00;9.07;;;6.50;;
44925;SDS011;30662;51.210;7.656;2023-02-07T00:44:26;11.15;;;7.10;;
44925;SDS011;30662;51.210;7.656;2023-02-07T00:46:52;12.10;;;7.72;;
44925;SDS011;30662;51.210;7.656;2023-02-07T00:49:18;12.75;;;6.90;;
44925;SDS011;30662;51.210;7.656;2023-02-07T00:51:44;10.77;;;6.97;;
44925;SDS011;30662;51.210;7.656;2023-02-07T00:54:09;17.42;;;7.72;;
44925;SDS011;30662;51.210;7.656;2023-02-07T00:56:36;11.18;;;7.05;;
44925;SDS011;30662;51.210;7.656;2023-02-07T00:59:02;10.85;;;7.25;;
44925;SDS011;30662;51.210;7.656;2023-02-07T01:01:28;9.32;;;6.60;;
44925;SDS011;30662;51.210;7.656;2023-02-07T01:03:54;11.52;;;6.82;;
44925;SDS011;30662;51.210;7.656;2023-02-07T01:06:20;10.10;;;7.68;;
44925;SDS011;30662;51.210;7.656;2023-02-07T01:08:46;11.48;;;7.00;;
44925;SDS011;30662;51.210;7.656;2023-02-07T01:11:13;9.32;;;6.28;;
44925;SDS011;30662;51.210;7.656;2023-02-07T01:13:41;9.98;;;6.20;;
44925;SDS011;30662;51.210;7.656;2023-02-07T01:16:25;8.45;;;6.35;;
44925;SDS011;30662;51.210;7.656;2023-02-07T01:18:53;12.93;;;6.72;;
44925;SDS011;30662;51.210;7.656;2023-02-07T01:21:20;7.90;;;5.65;;
44925;SDS011;30662;51.210;7.656;2023-02-07T01:23:49;7.80;;;5.65;;
44925;SDS011;30662;51.210;7.656;2023-02-07T01:26:15;8.45;;;6.05;;
44925;SDS011;30662;51.210;7.656;2023-02-07T01:28:41;6.95;;;5.07;;
44925;SDS011;30662;51.210;7.656;2023-02-07T01:31:08;5.80;;;5.18;;
44925;SDS011;30662;51.210;7.656;2023-02-07T01:33:35;6.88;;;4.90;;
44925;SDS011;30662;51.210;7.656;2023-02-07T01:36:08;8.43;;;4.80;;
44925;SDS011;30662;51.210;7.656;2023-02-07T01:38:37;8.57;;;5.63;;
44925;SDS011;30662;51.210;7.656;2023-02-07T01:41:03;5.93;;;5.32;;
44925;SDS011;30662;51.210;7.656;2023-02-07T01:43:30;8.20;;;5.18;;
44925;SDS011;30662;51.210;7.656;2023-02-07T01:45:56;7.25;;;5.30;;
44925;SDS011;30662;51.210;7.656;2023-02-07T01:48:23;6.93;;;4.38;;
44925;SDS011;30662;51.210;7.656;2023-02-07T01:50:52;6.85;;;4.60;;
44925;SDS011;30662;51.210;7.656;2023-02-07T01:53:21;6.25;;;4.72;;
44925;SDS011;30662;51.210;7.656;2023-02-07T01:55:50;5.60;;;4.60;;
44925;SDS011;30662;51.210;7.656;2023-02-07T01:58:19;4.95;;;4.22;;
44925;SDS011;30662;51.210;7.656;2023-02-07T02:00:46;5.10;;;3.72;;
44925;SDS011;30662;51.210;7.656;2023-02-07T02:03:13;4.47;;;4.10;;
44925;SDS011;30662;51.210;7.656;2023-02-07T02:05:39;4.95;;;3.75;;
44925;SDS011;30662;51.210;7.656;2023-02-07T02:08:07;3.97;;;3.45;;
44925;SDS011;30662;51.210;7.656;2023-02-07T02:18:54;4.07;;;3.60;;
44925;SDS011;30662;51.210;7.656;2023-02-07T02:38:25;3.55;;;3.03;;
44925;SDS011;30662;51.210;7.656;2023-02-07T02:40:56;3.65;;;2.80;;
44925;SDS011;30662;51.210;7.656;2023-02-07T02:43:42;4.60;;;3.17;;
44925;SDS011;30662;51.210;7.656;2023-02-07T02:46:14;4.40;;;2.70;;
44925;SDS011;30662;51.210;7.656;2023-02-07T02:48:44;3.45;;;3.15;;
44925;SDS011;30662;51.210;7.656;2023-02-07T02:51:10;3.47;;;3.10;;
44925;SDS011;30662;51.210;7.656;2023-02-07T02:53:36;3.45;;;3.10;;
44925;SDS011;30662;51.210;7.656;2023-02-07T02:56:48;4.38;;;3.15;;
44925;SDS011;30662;51.210;7.656;2023-02-07T02:59:20;3.83;;;3.15;;
44925;SDS011;30662;51.210;7.656;2023-02-07T03:02:10;3.00;;;2.75;;
44925;SDS011;30662;51.210;7.656;2023-02-07T03:24:00;3.03;;;2.83;;
44925;SDS011;30662;51.210;7.656;2023-02-07T03:26:31;3.17;;;2.88;;
44925;SDS011;30662;51.210;7.656;2023-02-07T03:28:59;2.83;;;2.50;;
44925;SDS011;30662;51.210;7.656;2023-02-07T03:31:28;2.70;;;2.50;;
44925;SDS011;30662;51.210;7.656;2023-02-07T03:33:58;3.40;;;3.10;;
44925;SDS011;30662;51.210;7.656;2023-02-07T03:39:31;3.47;;;2.78;;
44925;SDS011;30662;51.210;7.656;2023-02-07T03:41:58;3.15;;;2.85;;
44925;SDS011;30662;51.210;7.656;2023-02-07T03:44:28;3.22;;;2.83;;
44925;SDS011;30662;51.210;7.656;2023-02-07T03:46:56;4.20;;;3.13;;
44925;SDS011;30662;51.210;7.656;2023-02-07T03:49:23;3.03;;;2.83;;
44925;SDS011;30662;51.210;7.656;2023-02-07T03:51:49;3.92;;;3.55;;
44925;SDS011;30662;51.210;7.656;2023-02-07T03:54:16;3.60;;;3.30;;
44925;SDS011;30662;51.210;7.656;2023-02-07T03:56:43;3.53;;;3.22;;
44925;SDS011;30662;51.210;7.656;2023-02-07T03:59:09;6.55;;;5.85;;
44925;SDS011;30662;51.210;7.656;2023-02-07T04:01:35;5.15;;;4.65;;
44925;SDS011;30662;51.210;7.656;2023-02-07T04:04:07;4.38;;;3.97;;
44925;SDS011;30662;51.210;7.656;2023-02-07T04:06:36;4.47;;;4.03;;
44925;SDS011;30662;51.210;7.656;2023-02-07T04:09:02;4.20;;;3.80;;
44925;SDS011;30662;51.210;7.656;2023-02-07T04:11:28;4.68;;;4.13;;
44925;SDS011;30662;51.210;7.656;2023-02-07T04:13:54;4.85;;;4.40;;
44925;SDS011;30662;51.210;7.656;2023-02-07T04:16:21;5.03;;;4.50;;
44925;SDS011;30662;51.210;7.656;2023-02-07T04:18:47;5.82;;;4.47;;
44925;SDS011;30662;51.210;7.656;2023-02-07T04:21:13;5.97;;;4.50;;
44925;SDS011;30662;51.210;7.656;2023-02-07T04:23:39;6.13;;;4.75;;
44925;SDS011;30662;51.210;7.656;2023-02-07T04:26:05;5.82;;;4.72;;
44925;SDS011;30662;51.210;7.656;2023-02-07T04:28:31;6.10;;;4.63;;
44925;SDS011;30662;51.210;7.656;2023-02-07T04:30:57;5.70;;;5.05;;
44925;SDS011;30662;51.210;7.656;2023-02-07T04:33:23;5.18;;;4.57;;
44925;SDS011;30662;51.210;7.656;2023-02-07T04:35:53;7.97;;;4.85;;
44925;SDS011;30662;51.210;7.656;2023-02-07T04:38:22;3.75;;;3.45;;
44925;SDS011;30662;51.210;7.656;2023-02-07T04:40:49;4.88;;;4.10;;
44925;SDS011;30662;51.210;7.656;2023-02-07T04:43:15;5.20;;;4.70;;
44925;SDS011;30662;51.210;7.656;2023-02-07T04:45:41;5.85;;;4.47;;
44925;SDS011;30662;51.210;7.656;2023-02-07T04:48:07;5.97;;;4.53;;
44925;SDS011;30662;51.210;7.656;2023-02-07T04:50:33;4.78;;;4.20;;
44925;SDS011;30662;51.210;7.656;2023-02-07T04:52:58;5.30;;;4.80;;
44925;SDS011;30662;51.210;7.656;2023-02-07T04:55:24;4.57;;;4.18;;
44925;SDS011;30662;51.210;7.656;2023-02-07T04:57:50;7.00;;;4.95;;
44925;SDS011;30662;51.210;7.656;2023-02-07T05:00:16;4.95;;;4.40;;
44925;SDS011;30662;51.210;7.656;2023-02-07T05:02:42;7.70;;;4.72;;
44925;SDS011;30662;51.210;7.656;2023-02-07T05:05:08;6.15;;;4.53;;
44925;SDS011;30662;51.210;7.656;2023-02-07T05:07:35;5.65;;;4.00;;
44925;SDS011;30662;51.210;7.656;2023-02-07T05:10:01;4.55;;;4.15;;
44925;SDS011;30662;51.210;7.656;2023-02-07T05:12:27;4.47;;;4.07;;
44925;SDS011;30662;51.210;7.656;2023-02-07T05:14:53;4.22;;;3.45;;
44925;SDS011;30662;51.210;7.656;2023-02-07T05:17:19;5.20;;;4.22;;
44925;SDS011;30662;51.210;7.656;2023-02-07T05:19:45;3.95;;;3.55;;
44925;SDS011;30662;51.210;7.656;2023-02-07T05:22:11;5.85;;;4.32;;
44925;SDS011;30662;51.210;7.656;2023-02-07T05:24:38;4.95;;;4.15;;
44925;SDS011;30662;51.210;7.656;2023-02-07T05:27:04;8.13;;;4.93;;
44925;SDS011;30662;51.210;7.656;2023-02-07T05:29:30;7.00;;;5.18;;
44925;SDS011;30662;51.210;7.656;2023-02-07T05:31:55;6.45;;;5.00;;
44925;SDS011;30662;51.210;7.656;2023-02-07T05:34:40;6.57;;;5.35;;
44925;SDS011;30662;51.210;7.656;2023-02-07T05:37:06;11.15;;;4.65;;
44925;SDS011;30662;51.210;7.656;2023-02-07T05:39:32;7.10;;;4.93;;
44925;SDS011;30662;51.210;7.656;2023-02-07T05:41:58;7.07;;;5.03;;
44925;SDS011;30662;51.210;7.656;2023-02-07T05:44:24;10.07;;;5.78;;
44925;SDS011;30662;51.210;7.656;2023-02-07T05:46:50;5.57;;;4.50;;
44925;SDS011;30662;51.210;7.656;2023-02-07T05:49:17;6.03;;;4.63;;
44925;SDS011;30662;51.210;7.656;2023-02-07T05:51:43;5.93;;;4.88;;
44925;SDS011;30662;51.210;7.656;2023-02-07T05:54:09;4.88;;;4.38;;
44925;SDS011;30662;51.210;7.656;2023-02-07T05:56:35;4.55;;;4.03;;
44925;SDS011;30662;51.210;7.656;2023-02-07T05:59:01;4.90;;;4.13;;
44925;SDS011;30662;51.210;7.656;2023-02-07T06:01:27;6.40;;;5.03;;
44925;SDS011;30662;51.210;7.656;2023-02-07T06:03:53;5.35;;;4.85;;
44925;SDS011;30662;51.210;7.656;2023-02-07T06:06:18;6.18;;;4.28;;
44925;SDS011;30662;51.210;7.656;2023-02-07T06:08:44;4.70;;;4.20;;
44925;SDS011;30662;51.210;7.656;2023-02-07T06:11:10;5.10;;;4.60;;
44925;SDS011;30662;51.210;7.656;2023-02-07T06:13:36;5.45;;;4.60;;
44925;SDS011;30662;51.210;7.656;2023-02-07T06:16:03;7.68;;;6.28;;
44925;SDS011;30662;51.210;7.656;2023-02-07T06:18:29;6.60;;;6.00;;
44925;SDS011;30662;51.210;7.656;2023-02-07T06:20:55;6.13;;;5.53;;
44925;SDS011;30662;51.210;7.656;2023-02-07T06:23:21;6.30;;;4.82;;
44925;SDS011;30662;51.210;7.656;2023-02-07T06:25:47;30.83;;;13.75;;
44925;SDS011;30662;51.210;7.656;2023-02-07T06:28:13;35.55;;;15.93;;
44925;SDS011;30662;51.210;7.656;2023-02-07T06:30:39;20.48;;;11.30;;
44925;SDS011;30662;51.210;7.656;2023-02-07T06:33:05;15.80;;;7.97;;
44925;SDS011;30662;51.210;7.656;2023-02-07T06:35:31;12.15;;;6.55;;
44925;SDS011;30662;51.210;7.656;2023-02-07T06:37:57;17.40;;;9.05;;
44925;SDS011;30662;51.210;7.656;2023-02-07T06:40:23;13.25;;;7.35;;
44925;SDS011;30662;51.210;7.656;2023-02-07T06:42:49;6.22;;;5.25;;
44925;SDS011;30662;51.210;7.656;2023-02-07T06:45:15;8.02;;;5.75;;
44925;SDS011;30662;51.210;7.656;2023-02-07T06:47:41;6.72;;;4.65;;
44925;SDS011;30662;51.210;7.656;2023-02-07T06:50:07;4.75;;;4.35;;
44925;SDS011;30662;51.210;7.656;2023-02-07T06:52:34;5.10;;;4.70;;
44925;SDS011;30662;51.210;7.656;2023-02-07T06:55:00;9.85;;;6.90;;
44925;SDS011;30662;51.210;7.656;2023-02-07T06:57:26;14.63;;;7.25;;
44925;SDS011;30662;51.210;7.656;2023-02-07T06:59:52;7.95;;;5.95;;
44925;SDS011;30662;51.210;7.656;2023-02-07T07:02:18;9.27;;;6.55;;
44925;SDS011;30662;51.210;7.656;2023-02-07T07:04:44;6.35;;;5.22;;
44925;SDS011;30662;51.210;7.656;2023-02-07T07:07:10;5.93;;;5.07;;
44925;SDS011;30662;51.210;7.656;2023-02-07T07:09:35;5.30;;;4.85;;
44925;SDS011;30662;51.210;7.656;2023-02-07T07:12:01;6.97;;;5.80;;
44925;SDS011;30662;51.210;7.656;2023-02-07T07:14:29;4.50;;;4.10;;
44925;SDS011;30662;51.210;7.656;2023-02-07T07:16:54;4.95;;;4.38;;
44925;SDS011;30662;51.210;7.656;2023-02-07T07:19:22;4.68;;;4.28;;
44925;SDS011;30662;51.210;7.656;2023-02-07T07:21:47;5.32;;;4.53;;
44925;SDS011;30662;51.210;7.656;2023-02-07T07:24:13;8.32;;;5.28;;
44925;SDS011;30662;51.210;7.656;2023-02-07T07:26:39;7.28;;;5.32;;
44925;SDS011;30662;51.210;7.656;2023-02-07T07:29:15;5.68;;;5.00;;
44925;SDS011;30662;51.210;7.656;2023-02-07T07:31:42;6.03;;;5.35;;
44925;SDS011;30662;51.210;7.656;2023-02-07T07:34:09;9.65;;;6.60;;
44925;SDS011;30662;51.210;7.656;2023-02-07T07:36:35;13.70;;;8.23;;
44925;SDS011;30662;51.210;7.656;2023-02-07T07:39:01;9.63;;;7.20;;
44925;SDS011;30662;51.210;7.656;2023-02-07T07:41:26;8.80;;;7.30;;
44925;SDS011;30662;51.210;7.656;2023-02-07T07:43:52;10.68;;;7.45;;
44925;SDS011;30662;51.210;7.656;2023-02-07T07:46:19;11.15;;;7.07;;
44925;SDS011;30662;51.210;7.656;2023-02-07T07:48:45;10.60;;;7.32;;
44925;SDS011;30662;51.210;7.656;2023-02-07T07:51:11;8.77;;;6.07;;
44925;SDS011;30662;51.210;7.656;2023-02-07T07:53:38;7.00;;;5.50;;
44925;SDS011;30662;51.210;7.656;2023-02-07T07:56:04;6.53;;;5.75;;
44925;SDS011;30662;51.210;7.656;2023-02-07T07:58:30;6.53;;;5.40;;
44925;SDS011;30662;51.210;7.656;2023-02-07T08:00:55;5.30;;;4.80;;
44925;SDS011;30662;51.210;7.656;2023-02-07T08:03:22;5.78;;;5.05;;
44925;SDS011;30662;51.210;7.656;2023-02-07T08:05:48;5.88;;;5.03;;
44925;SDS011;30662;51.210;7.656;2023-02-07T08:08:14;8.05;;;5.53;;
44925;SDS011;30662;51.210;7.656;2023-02-07T08:10:41;8.40;;;6.15;;
44925;SDS011;30662;51.210;7.656;2023-02-07T08:13:07;10.13;;;7.50;;
44925;SDS011;30662;51.210;7.656;2023-02-07T08:15:34;6.32;;;5.72;;
44925;SDS011;30662;51.210;7.656;2023-02-07T08:18:00;5.88;;;5.28;;
44925;SDS011;30662;51.210;7.656;2023-02-07T08:20:26;5.60;;;4.70;;
44925;SDS011;30662;51.210;7.656;2023-02-07T08:22:52;5.13;;;4.63;;
44925;SDS011;30662;51.210;7.656;2023-02-07T08:25:18;5.55;;;5.05;;
44925;SDS011;30662;51.210;7.656;2023-02-07T08:27:44;7.45;;;5.50;;
44925;SDS011;30662;51.210;7.656;2023-02-07T08:30:10;5.95;;;5.20;;
44925;SDS011;30662;51.210;7.656;2023-02-07T08:32:37;6.07;;;4.97;;
44925;SDS011;30662;51.210;7.656;2023-02-07T08:35:04;5.47;;;4.90;;
44925;SDS011;30662;51.210;7.656;2023-02-07T08:37:31;5.90;;;4.60;;
44925;SDS011;30662;51.210;7.656;2023-02-07T08:39:57;5.90;;;5.20;;
44925;SDS011;30662;51.210;7.656;2023-02-07T08:42:23;4.95;;;4.45;;
44925;SDS011;30662;51.210;7.656;2023-02-07T08:44:49;5.60;;;5.00;;
44925;SDS011;30662;51.210;7.656;2023-02-07T08:47:15;5.32;;;4.72;;
44925;SDS011;30662;51.210;7.656;2023-02-07T08:49:43;4.32;;;3.92;;
44925;SDS011;30662;51.210;7.656;2023-02-07T08:52:10;5.07;;;3.90;;
44925;SDS011;30662;51.210;7.656;2023-02-07T08:54:36;3.22;;;2.92;;
44925;SDS011;30662;51.210;7.656;2023-02-07T08:57:02;3.65;;;3.00;;
44925;SDS011;30662;51.210;7.656;2023-02-07T08:59:29;3.47;;;3.10;;
44925;SDS011;30662;51.210;7.656;2023-02-07T09:01:55;3.30;;;3.00;;
44925;SDS011;30662;51.210;7.656;2023-02-07T09:04:21;3.38;;;3.08;;
44925;SDS011;30662;51.210;7.656;2023-02-07T09:06:47;3.60;;;2.92;;
44925;SDS011;30662;51.210;7.656;2023-02-07T09:09:13;7.63;;;4.30;;
44925;SDS011;30662;51.210;7.656;2023-02-07T09:11:39;6.30;;;4.35;;
44925;SDS011;30662;51.210;7.656;2023-02-07T09:14:05;4.68;;;3.83;;
44925;SDS011;30662;51.210;7.656;2023-02-07T09:16:31;5.25;;;4.45;;
44925;SDS011;30662;51.210;7.656;2023-02-07T09:18:57;5.85;;;3.92;;
44925;SDS011;30662;51.210;7.656;2023-02-07T09:21:23;4.88;;;3.35;;
44925;SDS011;30662;51.210;7.656;2023-02-07T09:23:49;5.07;;;3.50;;
44925;SDS011;30662;51.210;7.656;2023-02-07T09:26:16;2.90;;;2.60;;
44925;SDS011;30662;51.210;7.656;2023-02-07T09:28:44;2.47;;;2.28;;
44925;SDS011;30662;51.210;7.656;2023-02-07T09:31:10;2.55;;;2.35;;
44925;SDS011;30662;51.210;7.656;2023-02-07T09:33:37;3.97;;;3.50;;
44925;SDS011;30662;51.210;7.656;2023-02-07T09:36:04;2.50;;;2.30;;
44925;SDS011;30662;51.210;7.656;2023-02-07T09:38:30;2.60;;;2.40;;
44925;SDS011;30662;51.210;7.656;2023-02-07T09:40:57;3.03;;;2.60;;
44925;SDS011;30662;51.210;7.656;2023-02-07T09:46:28;6.40;;;3.57;;
44925;SDS011;30662;51.210;7.656;2023-02-07T09:49:01;5.00;;;3.47;;
44925;SDS011;30662;51.210;7.656;2023-02-07T09:51:29;3.22;;;2.92;;
44925;SDS011;30662;51.210;7.656;2023-02-07T09:54:00;3.08;;;2.78;;
44925;SDS011;30662;51.210;7.656;2023-02-07T09:56:29;3.70;;;3.13;;
44925;SDS011;30662;51.210;7.656;2023-02-07T10:01:51;7.53;;;4.00;;
44925;SDS011;30662;51.210;7.656;2023-02-07T10:04:24;6.13;;;3.35;;
44925;SDS011;30662;51.210;7.656;2023-02-07T10:06:56;6.55;;;3.28;;
44925;SDS011;30662;51.210;7.656;2023-02-07T10:09:24;2.30;;;2.10;;
44925;SDS011;30662;51.210;7.656;2023-02-07T10:11:57;1.77;;;1.48;;
44925;SDS011;30662;51.210;7.656;2023-02-07T10:23:07;1.20;;;1.10;;
44925;SDS011;30662;51.210;7.656;2023-02-07T10:25:51;1.95;;;1.33;;
44925;SDS011;30662;51.210;7.656;2023-02-07T10:31:22;1.20;;;1.10;;
44925;SDS011;30662;51.210;7.656;2023-02-07T10:33:58;1.52;;;1.42;;
44925;SDS011;30662;51.210;7.656;2023-02-07T10:36:28;2.03;;;1.35;;
44925;SDS011;30662;51.210;7.656;2023-02-07T10:41:35;1.13;;;0.90;;
44925;SDS011;30662;51.210;7.656;2023-02-07T10:44:09;1.00;;;0.90;;
44925;SDS011;30662;51.210;7.656;2023-02-07T10:46:39;4.53;;;1.50;;
44925;SDS011;30662;51.210;7.656;2023-02-07T10:49:18;2.00;;;1.08;;
44925;SDS011;30662;51.210;7.656;2023-02-07T10:51:50;2.97;;;1.20;;
44925;SDS011;30662;51.210;7.656;2023-02-07T10:54:17;1.35;;;0.88;;
44925;SDS011;30662;51.210;7.656;2023-02-07T10:56:46;1.10;;;1.00;;
44925;SDS011;30662;51.210;7.656;2023-02-07T11:02:29;2.35;;;1.25;;
44925;SDS011;30662;51.210;7.656;2023-02-07T11:07:28;0.98;;;0.95;;
44925;SDS011;30662;51.210;7.656;2023-02-07T11:10:21;1.02;;;0.93;;
44925;SDS011;30662;51.210;7.656;2023-02-07T11:12:54;2.40;;;0.75;;
44925;SDS011;30662;51.210;7.656;2023-02-07T11:15:23;1.33;;;1.15;;
44925;SDS011;30662;51.210;7.656;2023-02-07T11:18:04;1.50;;;1.20;;
44925;SDS011;30662;51.210;7.656;2023-02-07T11:20:32;0.75;;;0.75;;
44925;SDS011;30662;51.210;7.656;2023-02-07T11:23:02;2.72;;;1.13;;
44925;SDS011;30662;51.210;7.656;2023-02-07T11:25:37;1.38;;;1.02;;
44925;SDS011;30662;51.210;7.656;2023-02-07T11:28:06;2.63;;;1.35;;
44925;SDS011;30662;51.210;7.656;2023-02-07T11:30:40;4.45;;;1.02;;
44925;SDS011;30662;51.210;7.656;2023-02-07T11:33:09;3.75;;;2.83;;
44925;SDS011;30662;51.210;7.656;2023-02-07T11:35:59;3.63;;;0.90;;
44925;SDS011;30662;51.210;7.656;2023-02-07T11:38:35;1.98;;;1.15;;
44925;SDS011;30662;51.210;7.656;2023-02-07T11:41:03;1.45;;;1.15;;
44925;SDS011;30662;51.210;7.656;2023-02-07T11:43:32;2.03;;;1.30;;
44925;SDS011;30662;51.210;7.656;2023-02-07T11:46:00;1.15;;;0.93;;
44925;SDS011;30662;51.210;7.656;2023-02-07T11:48:35;1.58;;;1.15;;
44925;SDS011;30662;51.210;7.656;2023-02-07T11:51:05;1.40;;;1.30;;
44925;SDS011;30662;51.210;7.656;2023-02-07T11:53:37;1.20;;;1.10;;
44925;SDS011;30662;51.210;7.656;2023-02-07T11:56:06;1.40;;;1.00;;
44925;SDS011;30662;51.210;7.656;2023-02-07T11:58:47;2.50;;;1.40;;
44925;SDS011;30662;51.210;7.656;2023-02-07T12:01:15;1.85;;;1.13;;
44925;SDS011;30662;51.210;7.656;2023-02-07T12:03:46;1.52;;;1.20;;
44925;SDS011;30662;51.210;7.656;2023-02-07T12:06:23;1.75;;;1.13;;
44925;SDS011;30662;51.210;7.656;2023-02-07T12:08:55;3.80;;;1.00;;
44925;SDS011;30662;51.210;7.656;2023-02-07T12:11:23;1.67;;;1.40;;
44925;SDS011;30662;51.210;7.656;2023-02-07T12:14:15;1.20;;;1.10;;
44925;SDS011;30662;51.210;7.656;2023-02-07T12:16:54;4.13;;;1.05;;
44925;SDS011;30662;51.210;7.656;2023-02-07T12:19:26;2.92;;;1.50;;
44925;SDS011;30662;51.210;7.656;2023-02-07T12:24:40;1.42;;;1.20;;
44925;SDS011;30662;51.210;7.656;2023-02-07T12:36:20;1.60;;;1.50;;
44925;SDS011;30662;51.210;7.656;2023-02-07T12:38:37;2.83;;;1.98;;
44925;SDS011;30662;51.210;7.656;2023-02-07T12:47:00;1.40;;;1.30;;
44925;SDS011;30662;51.210;7.656;2023-02-07T12:49:37;1.83;;;1.33;;
44925;SDS011;30662;51.210;7.656;2023-02-07T12:55:34;1.55;;;1.45;;
44925;SDS011;30662;51.210;7.656;2023-02-07T13:00:58;1.60;;;1.50;;
44925;SDS011;30662;51.210;7.656;2023-02-07T13:04:00;1.30;;;1.20;;
44925;SDS011;30662;51.210;7.656;2023-02-07T13:09:36;3.38;;;1.63;;
44925;SDS011;30662;51.210;7.656;2023-02-07T13:12:38;1.80;;;1.33;;
44925;SDS011;30662;51.210;7.656;2023-02-07T13:15:46;1.95;;;1.50;;
44925;SDS011;30662;51.210;7.656;2023-02-07T13:18:06;1.40;;;1.30;;
44925;SDS011;30662;51.210;7.656;2023-02-07T13:23:35;1.50;;;1.40;;
44925;SDS011;30662;51.210;7.656;2023-02-07T13:26:08;1.80;;;1.70;;
44925;SDS011;30662;51.210;7.656;2023-02-07T13:28:55;1.40;;;1.30;;
44925;SDS011;30662;51.210;7.656;2023-02-07T13:31:38;1.90;;;1.45;;
44925;SDS011;30662;51.210;7.656;2023-02-07T13:34:17;3.37;;;1.70;;
44925;SDS011;30662;51.210;7.656;2023-02-07T13:36:47;1.60;;;1.40;;
44925;SDS011;30662;51.210;7.656;2023-02-07T13:39:23;1.67;;;1.42;;
44925;SDS011;30662;51.210;7.656;2023-02-07T13:48:04;1.75;;;1.63;;
44925;SDS011;30662;51.210;7.656;2023-02-07T13:51:09;2.15;;;1.95;;
44925;SDS011;30662;51.210;7.656;2023-02-07T13:53:33;2.58;;;1.63;;
44925;SDS011;30662;51.210;7.656;2023-02-07T13:56:12;2.10;;;1.90;;
44925;SDS011;30662;51.210;7.656;2023-02-07T13:58:58;2.10;;;1.90;;
44925;SDS011;30662;51.210;7.656;2023-02-07T14:01:47;2.13;;;1.92;;
44925;SDS011;30662;51.210;7.656;2023-02-07T14:04:18;2.75;;;2.22;;
44925;SDS011;30662;51.210;7.656;2023-02-07T14:09:21;2.38;;;2.15;;
44925;SDS011;30662;51.210;7.656;2023-02-07T14:14:29;3.25;;;2.25;;
44925;SDS011;30662;51.210;7.656;2023-02-07T14:23:01;3.30;;;2.67;;
44925;SDS011;30662;51.210;7.656;2023-02-07T14:27:38;2.70;;;2.50;;
44925;SDS011;30662;51.210;7.656;2023-02-07T14:35:34;3.30;;;2.85;;
44925;SDS011;30662;51.210;7.656;2023-02-07T14:38:18;3.55;;;2.42;;
44925;SDS011;30662;51.210;7.656;2023-02-07T14:40:48;3.42;;;2.88;;
44925;SDS011;30662;51.210;7.656;2023-02-07T14:43:39;2.33;;;2.13;;
44925;SDS011;30662;51.210;7.656;2023-02-07T14:46:10;3.72;;;3.30;;
44925;SDS011;30662;51.210;7.656;2023-02-07T14:48:51;2.80;;;2.50;;
44925;SDS011;30662;51.210;7.656;2023-02-07T14:51:29;3.60;;;3.10;;
44925;SDS011;30662;51.210;7.656;2023-02-07T14:54:02;3.85;;;2.90;;
44925;SDS011;30662;51.210;7.656;2023-02-07T14:56:39;3.83;;;3.40;;
44925;SDS011;30662;51.210;7.656;2023-02-07T14:59:12;4.95;;;3.75;;
44925;SDS011;30662;51.210;7.656;2023-02-07T15:01:48;4.50;;;2.83;;
44925;SDS011;30662;51.210;7.656;2023-02-07T15:04:14;4.45;;;3.65;;
44925;SDS011;30662;51.210;7.656;2023-02-07T15:06:42;3.75;;;3.17;;
44925;SDS011;30662;51.210;7.656;2023-02-07T15:09:18;3.22;;;2.92;;
44925;SDS011;30662;51.210;7.656;2023-02-07T15:11:46;3.95;;;3.55;;
44925;SDS011;30662;51.210;7.656;2023-02-07T15:14:29;3.78;;;3.17;;
44925;SDS011;30662;51.210;7.656;2023-02-07T15:16:58;3.53;;;2.70;;
44925;SDS011;30662;51.210;7.656;2023-02-07T15:19:28;5.25;;;3.22;;
44925;SDS011;30662;51.210;7.656;2023-02-07T15:22:03;4.47;;;3.95;;
44925;SDS011;30662;51.210;7.656;2023-02-07T15:24:45;3.95;;;2.90;;
44925;SDS011;30662;51.210;7.656;2023-02-07T15:27:18;4.28;;;2.88;;
44925;SDS011;30662;51.210;7.656;2023-02-07T15:32:25;4.38;;;3.40;;
44925;SDS011;30662;51.210;7.656;2023-02-07T15:34:55;5.30;;;2.70;;
44925;SDS011;30662;51.210;7.656;2023-02-07T15:37:22;3.22;;;2.78;;
44925;SDS011;30662;51.210;7.656;2023-02-07T15:39:51;4.07;;;3.28;;
44925;SDS011;30662;51.210;7.656;2023-02-07T15:42:19;4.72;;;3.20;;
44925;SDS011;30662;51.210;7.656;2023-02-07T15:44:52;3.83;;;3.20;;
44925;SDS011;30662;51.210;7.656;2023-02-07T15:52:58;4.65;;;3.63;;
44925;SDS011;30662;51.210;7.656;2023-02-07T15:55:30;4.07;;;3.67;;
44925;SDS011;30662;51.210;7.656;2023-02-07T15:57:59;4.88;;;3.38;;
44925;SDS011;30662;51.210;7.656;2023-02-07T16:00:27;4.90;;;3.58;;
44925;SDS011;30662;51.210;7.656;2023-02-07T16:03:00;4.35;;;3.90;;
44925;SDS011;30662;51.210;7.656;2023-02-07T16:05:34;3.50;;;3.20;;
44925;SDS011;30662;51.210;7.656;2023-02-07T16:08:03;6.50;;;5.15;;
44925;SDS011;30662;51.210;7.656;2023-02-07T16:10:37;5.20;;;4.13;;
44925;SDS011;30662;51.210;7.656;2023-02-07T16:13:18;6.70;;;4.57;;
44925;SDS011;30662;51.210;7.656;2023-02-07T16:15:56;6.07;;;4.22;;
44925;SDS011;30662;51.210;7.656;2023-02-07T16:18:40;4.95;;;3.95;;
44925;SDS011;30662;51.210;7.656;2023-02-07T16:21:25;4.18;;;3.58;;
44925;SDS011;30662;51.210;7.656;2023-02-07T16:23:58;3.67;;;3.28;;
44925;SDS011;30662;51.210;7.656;2023-02-07T16:26:29;7.53;;;3.90;;
44925;SDS011;30662;51.210;7.656;2023-02-07T16:28:56;4.05;;;3.58;;
44925;SDS011;30662;51.210;7.656;2023-02-07T16:31:22;4.60;;;3.63;;
44925;SDS011;30662;51.210;7.656;2023-02-07T16:33:48;4.78;;;3.58;;
44925;SDS011;30662;51.210;7.656;2023-02-07T16:36:15;5.53;;;3.53;;
44925;SDS011;30662;51.210;7.656;2023-02-07T16:38:43;4.15;;;3.65;;
44925;SDS011;30662;51.210;7.656;2023-02-07T16:43:56;6.43;;;3.95;;
44925;SDS011;30662;51.210;7.656;2023-02-07T16:46:23;8.25;;;3.80;;
44925;SDS011;30662;51.210;7.656;2023-02-07T16:48:50;5.32;;;4.00;;
44925;SDS011;30662;51.210;7.656;2023-02-07T16:51:16;4.80;;;4.05;;
44925;SDS011;30662;51.210;7.656;2023-02-07T16:53:42;5.53;;;4.53;;
44925;SDS011;30662;51.210;7.656;2023-02-07T16:56:13;7.38;;;4.38;;
44925;SDS011;30662;51.210;7.656;2023-02-07T16:58:42;4.80;;;4.30;;
44925;SDS011;30662;51.210;7.656;2023-02-07T17:01:09;8.48;;;6.03;;
44925;SDS011;30662;51.210;7.656;2023-02-07T17:03:42;9.32;;;4.93;;
44925;SDS011;30662;51.210;7.656;2023-02-07T17:06:18;6.47;;;3.95;;
44925;SDS011;30662;51.210;7.656;2023-02-07T17:08:46;5.72;;;4.30;;
44925;SDS011;30662;51.210;7.656;2023-02-07T17:11:16;4.53;;;3.95;;
44925;SDS011;30662;51.210;7.656;2023-02-07T17:13:54;4.55;;;4.13;;
44925;SDS011;30662;51.210;7.656;2023-02-07T17:16:22;5.13;;;3.75;;
44925;SDS011;30662;51.210;7.656;2023-02-07T17:18:49;5.60;;;4.63;;